Current | Forecast
Updated: 7:30 PM JST on June 29, 2017
Observed at Kansai, Japan
Temperature 75°F
Humidity 89%
Dew Point 72°F
Wind SW at 7 mph
Pressure 29.92 in (Steady)
Conditions Scattered Clouds
Visibility 6.2 miles
UV 0 out of 16
Clouds (FEW) : 2000 ft
Scattered Clouds (SCT) : 3000 ft
Yesterday's Maximum 81°F
Yesterday's Minimum 70°F approx.
Yesterday's Cooling Degree Days 10 approx.
Sunrise4:48 AM JST
Sunset7:11 PM JST
Moon Rise10:09 AM JST
Moon Set11:09 PM JST
Moon PhaseMoon Phase
Waxing Crescent
Raw METARMETAR RJBB 291030Z 23006KT 9999 FEW020 SCT030 BKN/// 24/22 Q1013 NOSIG


Monday
. High: 71° F.
Tuesday
. High: 71° F.
Wednesday
. High: 75° F.
Thursday
. High: 71° F.
Friday
. High: 73° F.
Saturday
. High: 77° F.
Sunday
. High: 75° F.
Monday
. High: 78° F.

Units: English | Metric

Find the Weather for any City, State or Zipcode, or Country:

U.S. State List | Severe Weather | Tropical Storms | Ski Conditions
United States | Canada | Central America | South America | Asia | Europe | Australia | Africa | Islands

Weather Underground

© Copyright 2017
The Weather Company, LLC